sensor_id;sensor_type;location;lat;lon;timestamp;P1;durP1;ratioP1;P2;durP2;ratioP2
35444;SDS011;21562;49.476;6.086;2022-12-18T00:02:22;47.63;;;18.15;;
35444;SDS011;21562;49.476;6.086;2022-12-18T00:04:47;54.33;;;18.75;;
35444;SDS011;21562;49.476;6.086;2022-12-18T00:07:13;52.80;;;19.58;;
35444;SDS011;21562;49.476;6.086;2022-12-18T00:09:38;45.92;;;17.95;;
35444;SDS011;21562;49.476;6.086;2022-12-18T00:12:04;45.40;;;19.55;;
35444;SDS011;21562;49.476;6.086;2022-12-18T00:14:30;41.25;;;16.25;;
35444;SDS011;21562;49.476;6.086;2022-12-18T00:16:55;44.35;;;16.10;;
35444;SDS011;21562;49.476;6.086;2022-12-18T00:19:23;47.90;;;17.42;;
35444;SDS011;21562;49.476;6.086;2022-12-18T00:21:49;47.65;;;16.13;;
35444;SDS011;21562;49.476;6.086;2022-12-18T00:24:14;46.13;;;17.00;;
35444;SDS011;21562;49.476;6.086;2022-12-18T00:26:40;51.95;;;16.35;;
35444;SDS011;21562;49.476;6.086;2022-12-18T00:29:12;45.92;;;18.15;;
35444;SDS011;21562;49.476;6.086;2022-12-18T00:31:38;44.08;;;17.15;;
35444;SDS011;21562;49.476;6.086;2022-12-18T00:34:05;45.92;;;17.73;;
35444;SDS011;21562;49.476;6.086;2022-12-18T00:36:32;43.60;;;16.15;;
35444;SDS011;21562;49.476;6.086;2022-12-18T00:39:00;49.72;;;17.77;;
35444;SDS011;21562;49.476;6.086;2022-12-18T00:41:27;52.17;;;16.95;;
35444;SDS011;21562;49.476;6.086;2022-12-18T00:44:12;46.95;;;16.52;;
35444;SDS011;21562;49.476;6.086;2022-12-18T00:46:40;50.28;;;16.50;;
35444;SDS011;21562;49.476;6.086;2022-12-18T00:49:06;44.30;;;16.25;;
35444;SDS011;21562;49.476;6.086;2022-12-18T00:51:32;40.67;;;15.75;;
35444;SDS011;21562;49.476;6.086;2022-12-18T00:53:58;43.60;;;14.90;;
35444;SDS011;21562;49.476;6.086;2022-12-18T00:56:23;40.75;;;16.05;;
35444;SDS011;21562;49.476;6.086;2022-12-18T00:58:49;43.75;;;16.42;;
35444;SDS011;21562;49.476;6.086;2022-12-18T01:01:15;41.22;;;16.05;;
35444;SDS011;21562;49.476;6.086;2022-12-18T01:03:40;42.47;;;17.17;;
35444;SDS011;21562;49.476;6.086;2022-12-18T01:06:06;39.40;;;16.00;;
35444;SDS011;21562;49.476;6.086;2022-12-18T01:08:34;46.28;;;17.08;;
35444;SDS011;21562;49.476;6.086;2022-12-18T01:11:00;44.67;;;16.40;;
35444;SDS011;21562;49.476;6.086;2022-12-18T01:13:26;47.42;;;16.92;;
35444;SDS011;21562;49.476;6.086;2022-12-18T01:15:52;44.53;;;17.20;;
35444;SDS011;21562;49.476;6.086;2022-12-18T01:18:17;47.78;;;16.63;;
35444;SDS011;21562;49.476;6.086;2022-12-18T01:20:43;47.35;;;16.48;;
35444;SDS011;21562;49.476;6.086;2022-12-18T01:23:09;42.88;;;16.00;;
35444;SDS011;21562;49.476;6.086;2022-12-18T01:25:37;43.88;;;17.10;;
35444;SDS011;21562;49.476;6.086;2022-12-18T01:28:03;44.22;;;17.33;;
35444;SDS011;21562;49.476;6.086;2022-12-18T01:30:29;44.22;;;15.73;;
35444;SDS011;21562;49.476;6.086;2022-12-18T01:32:54;40.65;;;16.02;;
35444;SDS011;21562;49.476;6.086;2022-12-18T01:35:20;43.70;;;16.27;;
35444;SDS011;21562;49.476;6.086;2022-12-18T01:37:46;44.35;;;17.52;;
35444;SDS011;21562;49.476;6.086;2022-12-18T01:40:11;44.75;;;16.80;;
35444;SDS011;21562;49.476;6.086;2022-12-18T01:42:37;48.15;;;17.05;;
35444;SDS011;21562;49.476;6.086;2022-12-18T01:47:33;47.03;;;17.73;;
35444;SDS011;21562;49.476;6.086;2022-12-18T01:50:07;52.08;;;15.85;;
35444;SDS011;21562;49.476;6.086;2022-12-18T01:52:38;44.72;;;16.35;;
35444;SDS011;21562;49.476;6.086;2022-12-18T01:55:05;41.47;;;15.90;;
35444;SDS011;21562;49.476;6.086;2022-12-18T01:57:33;41.58;;;15.18;;
35444;SDS011;21562;49.476;6.086;2022-12-18T02:00:00;41.83;;;15.52;;
35444;SDS011;21562;49.476;6.086;2022-12-18T02:02:30;40.88;;;15.93;;
35444;SDS011;21562;49.476;6.086;2022-12-18T02:04:56;44.50;;;15.15;;
35444;SDS011;21562;49.476;6.086;2022-12-18T02:12:59;41.83;;;15.73;;
35444;SDS011;21562;49.476;6.086;2022-12-18T02:18:33;38.53;;;13.75;;
35444;SDS011;21562;49.476;6.086;2022-12-18T02:26:36;34.97;;;14.30;;
35444;SDS011;21562;49.476;6.086;2022-12-18T02:29:10;38.83;;;13.68;;
35444;SDS011;21562;49.476;6.086;2022-12-18T02:31:40;36.17;;;14.10;;
35444;SDS011;21562;49.476;6.086;2022-12-18T02:34:10;39.60;;;13.13;;
35444;SDS011;21562;49.476;6.086;2022-12-18T02:36:38;39.45;;;13.40;;
35444;SDS011;21562;49.476;6.086;2022-12-18T02:39:06;38.08;;;13.10;;
35444;SDS011;21562;49.476;6.086;2022-12-18T02:41:35;33.33;;;12.25;;
35444;SDS011;21562;49.476;6.086;2022-12-18T02:44:06;35.15;;;13.10;;
35444;SDS011;21562;49.476;6.086;2022-12-18T02:49:11;40.53;;;14.82;;
35444;SDS011;21562;49.476;6.086;2022-12-18T02:51:53;36.70;;;13.10;;
35444;SDS011;21562;49.476;6.086;2022-12-18T02:57:00;35.53;;;13.35;;
35444;SDS011;21562;49.476;6.086;2022-12-18T02:59:58;32.60;;;12.20;;
35444;SDS011;21562;49.476;6.086;2022-12-18T03:02:33;35.90;;;13.07;;
35444;SDS011;21562;49.476;6.086;2022-12-18T03:05:31;33.83;;;12.32;;
35444;SDS011;21562;49.476;6.086;2022-12-18T03:08:03;37.25;;;12.80;;
35444;SDS011;21562;49.476;6.086;2022-12-18T03:10:39;37.17;;;13.15;;
35444;SDS011;21562;49.476;6.086;2022-12-18T03:13:14;35.38;;;13.77;;
35444;SDS011;21562;49.476;6.086;2022-12-18T03:15:49;40.78;;;14.15;;
35444;SDS011;21562;49.476;6.086;2022-12-18T03:18:19;42.80;;;14.82;;
35444;SDS011;21562;49.476;6.086;2022-12-18T03:21:00;34.10;;;12.73;;
35444;SDS011;21562;49.476;6.086;2022-12-18T03:23:32;39.10;;;14.18;;
35444;SDS011;21562;49.476;6.086;2022-12-18T03:26:04;43.63;;;15.15;;
35444;SDS011;21562;49.476;6.086;2022-12-18T03:28:35;36.72;;;13.60;;
35444;SDS011;21562;49.476;6.086;2022-12-18T03:31:04;40.72;;;13.82;;
35444;SDS011;21562;49.476;6.086;2022-12-18T03:33:43;37.17;;;12.75;;
35444;SDS011;21562;49.476;6.086;2022-12-18T03:36:20;33.88;;;13.77;;
35444;SDS011;21562;49.476;6.086;2022-12-18T03:38:46;33.70;;;13.25;;
35444;SDS011;21562;49.476;6.086;2022-12-18T03:49:41;31.35;;;11.55;;
35444;SDS011;21562;49.476;6.086;2022-12-18T03:54:42;34.78;;;12.93;;
35444;SDS011;21562;49.476;6.086;2022-12-18T03:57:11;32.55;;;12.18;;
35444;SDS011;21562;49.476;6.086;2022-12-18T03:59:42;39.45;;;13.93;;
35444;SDS011;21562;49.476;6.086;2022-12-18T04:02:10;38.10;;;13.35;;
35444;SDS011;21562;49.476;6.086;2022-12-18T04:04:37;34.70;;;12.50;;
35444;SDS011;21562;49.476;6.086;2022-12-18T04:07:05;37.40;;;13.85;;
35444;SDS011;21562;49.476;6.086;2022-12-18T04:09:32;39.22;;;14.38;;
35444;SDS011;21562;49.476;6.086;2022-12-18T04:11:59;33.28;;;12.77;;
35444;SDS011;21562;49.476;6.086;2022-12-18T04:14:25;37.03;;;13.48;;
35444;SDS011;21562;49.476;6.086;2022-12-18T04:16:50;37.00;;;15.00;;
35444;SDS011;21562;49.476;6.086;2022-12-18T04:19:16;35.30;;;14.77;;
35444;SDS011;21562;49.476;6.086;2022-12-18T04:21:41;35.38;;;14.40;;
35444;SDS011;21562;49.476;6.086;2022-12-18T04:24:07;43.72;;;15.23;;
35444;SDS011;21562;49.476;6.086;2022-12-18T04:26:33;47.78;;;16.40;;
35444;SDS011;21562;49.476;6.086;2022-12-18T04:28:59;40.83;;;15.82;;
35444;SDS011;21562;49.476;6.086;2022-12-18T04:31:24;45.50;;;16.33;;
35444;SDS011;21562;49.476;6.086;2022-12-18T04:33:50;38.58;;;15.50;;
35444;SDS011;21562;49.476;6.086;2022-12-18T04:36:16;38.35;;;14.75;;
35444;SDS011;21562;49.476;6.086;2022-12-18T04:38:42;43.53;;;16.17;;
35444;SDS011;21562;49.476;6.086;2022-12-18T04:41:07;45.15;;;16.55;;
35444;SDS011;21562;49.476;6.086;2022-12-18T04:43:33;42.83;;;18.58;;
35444;SDS011;21562;49.476;6.086;2022-12-18T04:46:05;41.17;;;17.35;;
35444;SDS011;21562;49.476;6.086;2022-12-18T04:48:32;47.38;;;17.95;;
35444;SDS011;21562;49.476;6.086;2022-12-18T04:50:58;40.65;;;17.27;;
35444;SDS011;21562;49.476;6.086;2022-12-18T04:53:24;46.33;;;18.15;;
35444;SDS011;21562;49.476;6.086;2022-12-18T04:55:49;46.63;;;16.65;;
35444;SDS011;21562;49.476;6.086;2022-12-18T04:58:15;51.22;;;18.25;;
35444;SDS011;21562;49.476;6.086;2022-12-18T05:00:41;57.25;;;19.25;;
35444;SDS011;21562;49.476;6.086;2022-12-18T05:03:06;51.55;;;18.15;;
35444;SDS011;21562;49.476;6.086;2022-12-18T05:05:34;46.05;;;18.73;;
35444;SDS011;21562;49.476;6.086;2022-12-18T05:08:00;49.88;;;19.17;;
35444;SDS011;21562;49.476;6.086;2022-12-18T05:10:25;51.38;;;18.30;;
35444;SDS011;21562;49.476;6.086;2022-12-18T05:12:51;51.78;;;19.63;;
35444;SDS011;21562;49.476;6.086;2022-12-18T05:15:23;48.03;;;17.95;;
35444;SDS011;21562;49.476;6.086;2022-12-18T05:17:49;50.08;;;19.77;;
35444;SDS011;21562;49.476;6.086;2022-12-18T05:20:15;47.67;;;20.40;;
35444;SDS011;21562;49.476;6.086;2022-12-18T05:22:41;58.75;;;20.88;;
35444;SDS011;21562;49.476;6.086;2022-12-18T05:25:06;58.85;;;20.70;;
35444;SDS011;21562;49.476;6.086;2022-12-18T05:27:32;47.25;;;18.30;;
35444;SDS011;21562;49.476;6.086;2022-12-18T05:29:58;59.78;;;22.75;;
35444;SDS011;21562;49.476;6.086;2022-12-18T05:32:23;59.28;;;21.65;;
35444;SDS011;21562;49.476;6.086;2022-12-18T05:34:49;49.83;;;19.55;;
35444;SDS011;21562;49.476;6.086;2022-12-18T05:37:14;59.10;;;20.23;;
35444;SDS011;21562;49.476;6.086;2022-12-18T05:39:40;55.28;;;21.17;;
35444;SDS011;21562;49.476;6.086;2022-12-18T05:42:07;56.28;;;20.52;;
35444;SDS011;21562;49.476;6.086;2022-12-18T05:44:32;50.95;;;19.15;;
35444;SDS011;21562;49.476;6.086;2022-12-18T05:46:58;48.95;;;19.45;;
35444;SDS011;21562;49.476;6.086;2022-12-18T05:49:24;57.75;;;20.10;;
35444;SDS011;21562;49.476;6.086;2022-12-18T05:51:50;52.85;;;19.77;;
35444;SDS011;21562;49.476;6.086;2022-12-18T05:54:15;51.75;;;19.17;;
35444;SDS011;21562;49.476;6.086;2022-12-18T05:56:41;52.53;;;20.33;;
35444;SDS011;21562;49.476;6.086;2022-12-18T05:59:07;53.92;;;20.70;;
35444;SDS011;21562;49.476;6.086;2022-12-18T06:01:32;51.15;;;20.50;;
35444;SDS011;21562;49.476;6.086;2022-12-18T06:03:58;52.75;;;20.20;;
35444;SDS011;21562;49.476;6.086;2022-12-18T06:06:25;53.92;;;20.92;;
35444;SDS011;21562;49.476;6.086;2022-12-18T06:08:52;52.47;;;20.63;;
35444;SDS011;21562;49.476;6.086;2022-12-18T06:11:19;51.03;;;21.38;;
35444;SDS011;21562;49.476;6.086;2022-12-18T06:13:51;53.70;;;20.20;;
35444;SDS011;21562;49.476;6.086;2022-12-18T06:16:17;53.70;;;20.80;;
35444;SDS011;21562;49.476;6.086;2022-12-18T06:18:43;61.67;;;21.42;;
35444;SDS011;21562;49.476;6.086;2022-12-18T06:21:10;60.45;;;21.65;;
35444;SDS011;21562;49.476;6.086;2022-12-18T06:23:36;57.25;;;21.27;;
35444;SDS011;21562;49.476;6.086;2022-12-18T06:26:03;56.72;;;19.88;;
35444;SDS011;21562;49.476;6.086;2022-12-18T06:28:33;57.45;;;20.60;;
35444;SDS011;21562;49.476;6.086;2022-12-18T06:30:59;54.53;;;19.73;;
35444;SDS011;21562;49.476;6.086;2022-12-18T06:33:28;52.25;;;20.73;;
35444;SDS011;21562;49.476;6.086;2022-12-18T06:35:54;61.17;;;21.58;;
35444;SDS011;21562;49.476;6.086;2022-12-18T06:38:24;65.13;;;21.63;;
35444;SDS011;21562;49.476;6.086;2022-12-18T06:40:50;61.92;;;21.70;;
35444;SDS011;21562;49.476;6.086;2022-12-18T06:43:15;57.08;;;21.08;;
35444;SDS011;21562;49.476;6.086;2022-12-18T06:45:41;64.50;;;21.80;;
35444;SDS011;21562;49.476;6.086;2022-12-18T06:48:07;56.63;;;20.65;;
35444;SDS011;21562;49.476;6.086;2022-12-18T06:50:32;58.28;;;20.85;;
35444;SDS011;21562;49.476;6.086;2022-12-18T06:52:58;51.15;;;20.25;;
35444;SDS011;21562;49.476;6.086;2022-12-18T06:55:24;53.42;;;20.20;;
35444;SDS011;21562;49.476;6.086;2022-12-18T06:57:50;54.55;;;18.63;;
35444;SDS011;21562;49.476;6.086;2022-12-18T07:00:15;58.88;;;20.67;;
35444;SDS011;21562;49.476;6.086;2022-12-18T07:02:41;55.30;;;21.35;;
35444;SDS011;21562;49.476;6.086;2022-12-18T07:05:07;53.35;;;20.60;;
35444;SDS011;21562;49.476;6.086;2022-12-18T07:07:33;64.22;;;22.73;;
35444;SDS011;21562;49.476;6.086;2022-12-18T07:09:59;64.43;;;21.33;;
35444;SDS011;21562;49.476;6.086;2022-12-18T07:12:26;55.55;;;22.20;;
35444;SDS011;21562;49.476;6.086;2022-12-18T07:14:52;53.45;;;20.80;;
35444;SDS011;21562;49.476;6.086;2022-12-18T07:17:17;61.13;;;21.38;;
35444;SDS011;21562;49.476;6.086;2022-12-18T07:19:43;58.50;;;24.63;;
35444;SDS011;21562;49.476;6.086;2022-12-18T07:22:09;65.10;;;22.10;;
35444;SDS011;21562;49.476;6.086;2022-12-18T07:24:34;58.58;;;22.08;;
35444;SDS011;21562;49.476;6.086;2022-12-18T07:27:00;58.15;;;21.42;;
35444;SDS011;21562;49.476;6.086;2022-12-18T07:29:26;63.72;;;22.33;;
35444;SDS011;21562;49.476;6.086;2022-12-18T07:31:51;60.92;;;21.63;;
35444;SDS011;21562;49.476;6.086;2022-12-18T07:34:17;61.15;;;23.70;;
35444;SDS011;21562;49.476;6.086;2022-12-18T07:36:42;55.40;;;21.80;;
35444;SDS011;21562;49.476;6.086;2022-12-18T07:39:08;62.08;;;21.58;;
35444;SDS011;21562;49.476;6.086;2022-12-18T07:41:35;59.28;;;23.15;;
35444;SDS011;21562;49.476;6.086;2022-12-18T07:44:01;63.42;;;23.38;;
35444;SDS011;21562;49.476;6.086;2022-12-18T07:46:26;66.00;;;24.02;;
35444;SDS011;21562;49.476;6.086;2022-12-18T07:48:52;67.53;;;25.23;;
35444;SDS011;21562;49.476;6.086;2022-12-18T07:51:18;59.65;;;23.48;;
35444;SDS011;21562;49.476;6.086;2022-12-18T07:53:43;70.63;;;25.58;;
35444;SDS011;21562;49.476;6.086;2022-12-18T07:56:10;64.28;;;23.90;;
35444;SDS011;21562;49.476;6.086;2022-12-18T07:58:36;63.75;;;23.05;;
35444;SDS011;21562;49.476;6.086;2022-12-18T08:01:05;66.47;;;23.65;;
35444;SDS011;21562;49.476;6.086;2022-12-18T08:03:32;74.18;;;23.95;;
35444;SDS011;21562;49.476;6.086;2022-12-18T08:06:04;71.55;;;25.25;;
35444;SDS011;21562;49.476;6.086;2022-12-18T08:08:31;72.53;;;25.08;;
35444;SDS011;21562;49.476;6.086;2022-12-18T08:10:58;73.13;;;26.45;;
35444;SDS011;21562;49.476;6.086;2022-12-18T08:13:24;63.55;;;25.00;;
35444;SDS011;21562;49.476;6.086;2022-12-18T08:15:57;59.35;;;23.52;;
35444;SDS011;21562;49.476;6.086;2022-12-18T08:18:27;74.78;;;25.23;;
35444;SDS011;21562;49.476;6.086;2022-12-18T08:20:53;66.68;;;25.65;;
35444;SDS011;21562;49.476;6.086;2022-12-18T08:23:20;74.13;;;26.95;;
35444;SDS011;21562;49.476;6.086;2022-12-18T08:25:45;60.67;;;25.00;;
35444;SDS011;21562;49.476;6.086;2022-12-18T08:28:11;64.50;;;24.48;;
35444;SDS011;21562;49.476;6.086;2022-12-18T08:30:37;67.25;;;25.80;;
35444;SDS011;21562;49.476;6.086;2022-12-18T08:33:03;72.03;;;24.50;;
35444;SDS011;21562;49.476;6.086;2022-12-18T08:35:29;69.63;;;25.75;;
35444;SDS011;21562;49.476;6.086;2022-12-18T08:37:54;70.93;;;25.73;;
35444;SDS011;21562;49.476;6.086;2022-12-18T08:40:20;68.82;;;27.00;;
35444;SDS011;21562;49.476;6.086;2022-12-18T08:42:46;65.53;;;25.13;;
35444;SDS011;21562;49.476;6.086;2022-12-18T08:45:30;77.03;;;25.75;;
35444;SDS011;21562;49.476;6.086;2022-12-18T08:47:55;70.90;;;24.92;;
35444;SDS011;21562;49.476;6.086;2022-12-18T08:50:21;81.10;;;27.13;;
35444;SDS011;21562;49.476;6.086;2022-12-18T08:52:47;69.55;;;25.65;;
35444;SDS011;21562;49.476;6.086;2022-12-18T08:55:12;74.50;;;28.45;;
35444;SDS011;21562;49.476;6.086;2022-12-18T08:57:38;68.47;;;24.83;;
35444;SDS011;21562;49.476;6.086;2022-12-18T09:00:04;77.20;;;27.10;;
35444;SDS011;21562;49.476;6.086;2022-12-18T09:02:30;79.90;;;27.55;;
35444;SDS011;21562;49.476;6.086;2022-12-18T09:04:56;70.07;;;25.35;;
35444;SDS011;21562;49.476;6.086;2022-12-18T09:07:21;76.85;;;27.23;;
35444;SDS011;21562;49.476;6.086;2022-12-18T09:09:47;68.32;;;23.17;;
35444;SDS011;21562;49.476;6.086;2022-12-18T09:12:12;67.50;;;25.20;;
35444;SDS011;21562;49.476;6.086;2022-12-18T09:14:38;74.72;;;26.85;;
35444;SDS011;21562;49.476;6.086;2022-12-18T09:17:03;75.93;;;26.10;;
35444;SDS011;21562;49.476;6.086;2022-12-18T09:19:29;68.97;;;22.05;;
35444;SDS011;21562;49.476;6.086;2022-12-18T09:21:55;72.15;;;25.42;;
35444;SDS011;21562;49.476;6.086;2022-12-18T09:24:20;72.45;;;28.00;;
35444;SDS011;21562;49.476;6.086;2022-12-18T09:26:46;72.93;;;26.55;;
35444;SDS011;21562;49.476;6.086;2022-12-18T09:29:11;84.05;;;28.38;;
35444;SDS011;21562;49.476;6.086;2022-12-18T09:31:37;78.15;;;28.75;;
35444;SDS011;21562;49.476;6.086;2022-12-18T09:34:04;78.82;;;28.58;;
35444;SDS011;21562;49.476;6.086;2022-12-18T09:36:30;85.05;;;29.58;;
35444;SDS011;21562;49.476;6.086;2022-12-18T09:38:55;78.30;;;28.95;;
35444;SDS011;21562;49.476;6.086;2022-12-18T09:44:44;69.97;;;26.05;;
35444;SDS011;21562;49.476;6.086;2022-12-18T09:46:52;80.75;;;27.38;;
35444;SDS011;21562;49.476;6.086;2022-12-18T09:51:55;73.75;;;26.60;;
35444;SDS011;21562;49.476;6.086;2022-12-18T09:54:32;75.70;;;27.15;;
35444;SDS011;21562;49.476;6.086;2022-12-18T09:57:06;71.43;;;26.83;;
35444;SDS011;21562;49.476;6.086;2022-12-18T09:59:38;76.53;;;26.95;;
35444;SDS011;21562;49.476;6.086;2022-12-18T10:02:22;73.53;;;27.52;;
35444;SDS011;21562;49.476;6.086;2022-12-18T10:04:54;83.10;;;29.25;;
35444;SDS011;21562;49.476;6.086;2022-12-18T10:07:34;86.40;;;29.40;;
35444;SDS011;21562;49.476;6.086;2022-12-18T10:10:31;101.67;;;30.90;;
35444;SDS011;21562;49.476;6.086;2022-12-18T10:13:14;80.95;;;30.95;;
35444;SDS011;21562;49.476;6.086;2022-12-18T10:15:59;79.47;;;28.23;;
35444;SDS011;21562;49.476;6.086;2022-12-18T10:18:50;77.38;;;26.60;;
35444;SDS011;21562;49.476;6.086;2022-12-18T10:26:54;76.10;;;26.67;;
35444;SDS011;21562;49.476;6.086;2022-12-18T10:29:26;79.57;;;28.65;;
35444;SDS011;21562;49.476;6.086;2022-12-18T10:31:52;78.25;;;26.95;;
35444;SDS011;21562;49.476;6.086;2022-12-18T10:34:17;77.40;;;28.80;;
35444;SDS011;21562;49.476;6.086;2022-12-18T10:36:43;76.43;;;27.08;;
35444;SDS011;21562;49.476;6.086;2022-12-18T10:39:19;89.20;;;29.52;;
35444;SDS011;21562;49.476;6.086;2022-12-18T10:41:47;83.53;;;30.05;;
35444;SDS011;21562;49.476;6.086;2022-12-18T10:44:17;89.68;;;29.60;;
35444;SDS011;21562;49.476;6.086;2022-12-18T10:46:43;92.55;;;30.85;;
35444;SDS011;21562;49.476;6.086;2022-12-18T10:49:24;85.00;;;29.02;;
35444;SDS011;21562;49.476;6.086;2022-12-18T10:51:54;85.15;;;30.67;;
35444;SDS011;21562;49.476;6.086;2022-12-18T10:54:32;88.93;;;31.17;;
35444;SDS011;21562;49.476;6.086;2022-12-18T10:59:58;79.38;;;26.55;;
35444;SDS011;21562;49.476;6.086;2022-12-18T11:05:02;79.47;;;27.73;;
35444;SDS011;21562;49.476;6.086;2022-12-18T11:07:48;86.18;;;29.17;;
35444;SDS011;21562;49.476;6.086;2022-12-18T11:10:18;84.13;;;29.33;;
35444;SDS011;21562;49.476;6.086;2022-12-18T11:12:51;86.07;;;27.08;;
35444;SDS011;21562;49.476;6.086;2022-12-18T11:15:19;83.65;;;28.27;;
35444;SDS011;21562;49.476;6.086;2022-12-18T11:17:48;84.63;;;30.40;;
35444;SDS011;21562;49.476;6.086;2022-12-18T11:23:10;77.80;;;29.33;;
35444;SDS011;21562;49.476;6.086;2022-12-18T11:25:38;93.72;;;29.65;;
35444;SDS011;21562;49.476;6.086;2022-12-18T11:28:04;99.90;;;31.25;;
35444;SDS011;21562;49.476;6.086;2022-12-18T11:31:08;81.68;;;28.55;;
35444;SDS011;21562;49.476;6.086;2022-12-18T11:33:37;78.22;;;28.70;;
35444;SDS011;21562;49.476;6.086;2022-12-18T11:36:07;85.90;;;28.85;;
35444;SDS011;21562;49.476;6.086;2022-12-18T11:38:36;81.28;;;29.67;;
35444;SDS011;21562;49.476;6.086;2022-12-18T11:41:05;74.88;;;27.83;;
35444;SDS011;21562;49.476;6.086;2022-12-18T11:43:54;84.22;;;27.83;;
35444;SDS011;21562;49.476;6.086;2022-12-18T11:46:25;76.88;;;26.63;;
35444;SDS011;21562;49.476;6.086;2022-12-18T11:51:38;70.47;;;24.75;;
35444;SDS011;21562;49.476;6.086;2022-12-18T11:54:11;84.32;;;27.25;;
35444;SDS011;21562;49.476;6.086;2022-12-18T12:04:46;86.68;;;29.50;;
35444;SDS011;21562;49.476;6.086;2022-12-18T12:15:18;81.05;;;28.27;;
35444;SDS011;21562;49.476;6.086;2022-12-18T12:26:06;75.10;;;28.83;;
35444;SDS011;21562;49.476;6.086;2022-12-18T12:39:37;78.63;;;27.75;;
35444;SDS011;21562;49.476;6.086;2022-12-18T12:42:13;80.78;;;28.38;;
35444;SDS011;21562;49.476;6.086;2022-12-18T12:45:17;80.63;;;27.30;;
35444;SDS011;21562;49.476;6.086;2022-12-18T12:47:47;75.07;;;26.67;;
35444;SDS011;21562;49.476;6.086;2022-12-18T12:50:16;87.32;;;29.33;;
35444;SDS011;21562;49.476;6.086;2022-12-18T12:52:54;83.97;;;28.00;;
35444;SDS011;21562;49.476;6.086;2022-12-18T12:55:22;82.57;;;28.95;;
35444;SDS011;21562;49.476;6.086;2022-12-18T12:57:56;83.55;;;28.85;;
35444;SDS011;21562;49.476;6.086;2022-12-18T13:00:39;97.95;;;30.73;;
35444;SDS011;21562;49.476;6.086;2022-12-18T13:03:16;85.25;;;29.50;;
35444;SDS011;21562;49.476;6.086;2022-12-18T13:05:54;85.10;;;30.67;;
35444;SDS011;21562;49.476;6.086;2022-12-18T13:08:25;82.35;;;29.23;;
35444;SDS011;21562;49.476;6.086;2022-12-18T13:10:56;83.10;;;29.40;;
35444;SDS011;21562;49.476;6.086;2022-12-18T13:13:51;94.05;;;31.45;;
35444;SDS011;21562;49.476;6.086;2022-12-18T13:16:24;83.80;;;29.98;;
35444;SDS011;21562;49.476;6.086;2022-12-18T13:18:55;86.10;;;31.27;;
35444;SDS011;21562;49.476;6.086;2022-12-18T13:21:29;85.78;;;28.77;;
35444;SDS011;21562;49.476;6.086;2022-12-18T13:24:14;89.82;;;30.48;;
35444;SDS011;21562;49.476;6.086;2022-12-18T13:27:00;82.32;;;29.38;;
35444;SDS011;21562;49.476;6.086;2022-12-18T13:30:19;91.32;;;31.42;;
35444;SDS011;21562;49.476;6.086;2022-12-18T13:38:21;95.95;;;31.92;;
35444;SDS011;21562;49.476;6.086;2022-12-18T13:40:56;99.28;;;32.33;;
35444;SDS011;21562;49.476;6.086;2022-12-18T13:43:30;95.53;;;31.73;;
35444;SDS011;21562;49.476;6.086;2022-12-18T13:46:00;98.85;;;34.92;;
35444;SDS011;21562;49.476;6.086;2022-12-18T13:48:28;103.72;;;33.72;;
35444;SDS011;21562;49.476;6.086;2022-12-18T13:51:06;99.68;;;35.55;;
35444;SDS011;21562;49.476;6.086;2022-12-18T13:53:39;97.00;;;34.42;;
35444;SDS011;21562;49.476;6.086;2022-12-18T13:56:17;94.70;;;32.83;;
35444;SDS011;21562;49.476;6.086;2022-12-18T13:59:03;104.68;;;33.53;;
35444;SDS011;21562;49.476;6.086;2022-12-18T14:01:36;91.93;;;32.58;;
35444;SDS011;21562;49.476;6.086;2022-12-18T14:04:18;91.00;;;33.00;;
35444;SDS011;21562;49.476;6.086;2022-12-18T14:06:44;95.18;;;33.20;;
35444;SDS011;21562;49.476;6.086;2022-12-18T14:09:15;85.78;;;31.23;;
35444;SDS011;21562;49.476;6.086;2022-12-18T14:11:49;92.47;;;31.23;;
35444;SDS011;21562;49.476;6.086;2022-12-18T14:14:16;95.57;;;33.80;;
35444;SDS011;21562;49.476;6.086;2022-12-18T14:16:43;100.35;;;34.20;;
35444;SDS011;21562;49.476;6.086;2022-12-18T14:19:13;94.38;;;34.08;;
35444;SDS011;21562;49.476;6.086;2022-12-18T14:21:45;104.75;;;33.53;;
35444;SDS011;21562;49.476;6.086;2022-12-18T14:24:16;109.18;;;34.75;;
35444;SDS011;21562;49.476;6.086;2022-12-18T14:26:43;92.60;;;33.75;;
35444;SDS011;21562;49.476;6.086;2022-12-18T14:29:29;97.25;;;34.83;;
35444;SDS011;21562;49.476;6.086;2022-12-18T14:34:31;104.28;;;34.42;;
35444;SDS011;21562;49.476;6.086;2022-12-18T14:36:57;117.07;;;36.60;;
35444;SDS011;21562;49.476;6.086;2022-12-18T14:39:22;102.80;;;35.28;;
35444;SDS011;21562;49.476;6.086;2022-12-18T14:41:50;98.45;;;33.88;;
35444;SDS011;21562;49.476;6.086;2022-12-18T14:44:16;100.28;;;33.63;;
35444;SDS011;21562;49.476;6.086;2022-12-18T14:46:43;105.00;;;35.72;;
35444;SDS011;21562;49.476;6.086;2022-12-18T14:52:05;103.18;;;35.38;;
35444;SDS011;21562;49.476;6.086;2022-12-18T14:54:45;101.43;;;34.60;;
35444;SDS011;21562;49.476;6.086;2022-12-18T14:59:47;99.47;;;33.53;;
35444;SDS011;21562;49.476;6.086;2022-12-18T15:02:15;98.35;;;32.55;;
35444;SDS011;21562;49.476;6.086;2022-12-18T15:04:47;99.28;;;35.20;;
35444;SDS011;21562;49.476;6.086;2022-12-18T15:07:25;93.57;;;33.88;;
35444;SDS011;21562;49.476;6.086;2022-12-18T15:14:58;86.55;;;30.75;;
35444;SDS011;21562;49.476;6.086;2022-12-18T15:17:23;98.53;;;35.08;;
35444;SDS011;21562;49.476;6.086;2022-12-18T15:19:51;94.20;;;32.70;;
35444;SDS011;21562;49.476;6.086;2022-12-18T15:22:27;98.82;;;33.45;;
35444;SDS011;21562;49.476;6.086;2022-12-18T15:25:00;96.07;;;35.30;;
35444;SDS011;21562;49.476;6.086;2022-12-18T15:27:31;89.90;;;34.30;;
35444;SDS011;21562;49.476;6.086;2022-12-18T15:32:32;90.78;;;31.98;;
35444;SDS011;21562;49.476;6.086;2022-12-18T15:35:03;96.50;;;32.45;;
35444;SDS011;21562;49.476;6.086;2022-12-18T15:37:34;96.18;;;32.38;;
35444;SDS011;21562;49.476;6.086;2022-12-18T15:40:00;94.18;;;33.15;;
35444;SDS011;21562;49.476;6.086;2022-12-18T15:42:27;98.28;;;34.25;;
35444;SDS011;21562;49.476;6.086;2022-12-18T15:45:12;94.72;;;34.20;;
35444;SDS011;21562;49.476;6.086;2022-12-18T15:47:39;99.57;;;32.83;;
35444;SDS011;21562;49.476;6.086;2022-12-18T15:50:05;90.22;;;32.45;;
35444;SDS011;21562;49.476;6.086;2022-12-18T15:52:49;91.57;;;32.80;;
35444;SDS011;21562;49.476;6.086;2022-12-18T15:55:22;100.38;;;33.60;;
35444;SDS011;21562;49.476;6.086;2022-12-18T15:58:08;94.18;;;32.20;;
35444;SDS011;21562;49.476;6.086;2022-12-18T16:00:35;98.43;;;34.30;;
35444;SDS011;21562;49.476;6.086;2022-12-18T16:03:03;87.93;;;30.63;;
35444;SDS011;21562;49.476;6.086;2022-12-18T16:05:29;95.07;;;32.00;;
35444;SDS011;21562;49.476;6.086;2022-12-18T16:07:55;97.05;;;33.58;;
35444;SDS011;21562;49.476;6.086;2022-12-18T16:10:21;103.43;;;34.65;;
35444;SDS011;21562;49.476;6.086;2022-12-18T16:12:47;93.15;;;33.55;;
35444;SDS011;21562;49.476;6.086;2022-12-18T16:15:14;103.47;;;33.08;;
35444;SDS011;21562;49.476;6.086;2022-12-18T16:17:41;100.15;;;32.28;;
35444;SDS011;21562;49.476;6.086;2022-12-18T16:20:11;93.53;;;32.40;;
35444;SDS011;21562;49.476;6.086;2022-12-18T16:22:40;91.15;;;33.47;;
35444;SDS011;21562;49.476;6.086;2022-12-18T16:25:08;97.05;;;33.53;;
35444;SDS011;21562;49.476;6.086;2022-12-18T16:27:42;93.38;;;31.58;;